Time;durP1;ratioP1;P1;durP2;ratioP2;P2;SDS_P1;SDS_P2;PMS_P1;PMS_P2;Temp;Humidity;BMP_temperature;BMP_pressure;BME280_temperature;BME280_humidity;BME280_pressure;Samples;Min_cycle;Max_cycle;Signal;HPM_P1;HPM_P2
2021/12/27 00:01:15;;;;;;;8.80;6.10;;;7.80;99.90;;;7.95;75.20;96469.00;4990296;28;20233;-45
2021/12/27 00:03:43;;;;;;;9.60;7.13;;;7.80;99.90;;;7.95;75.50;96471.63;4988436;28;20052;-47
2021/12/27 00:06:11;;;;;;;10.17;7.00;;;7.80;99.90;;;7.95;75.58;96466.34;4988514;28;20054;-48
2021/12/27 00:08:42;;;;;;;13.03;6.87;;;7.80;99.90;;;7.95;75.45;96468.13;4990206;28;20060;-44
2021/12/27 00:11:13;;;;;;;10.27;7.80;;;7.70;99.90;;;7.95;75.25;96461.03;4988745;28;20057;-44
2021/12/27 00:13:41;;;;;;;11.80;7.13;;;7.70;99.90;;;7.95;74.99;96462.84;4989179;28;20058;-46
2021/12/27 00:16:10;;;;;;;12.17;8.87;;;7.70;99.90;;;7.94;75.36;96456.72;4988450;28;20397;-45
2021/12/27 00:18:38;;;;;;;10.87;8.03;;;7.70;99.90;;;7.95;75.34;96457.53;4987369;28;20382;-47
2021/12/27 00:21:05;;;;;;;12.53;8.40;;;7.70;99.90;;;7.95;75.53;96454.88;4989956;28;20477;-45
2021/12/27 00:23:33;;;;;;;14.00;8.10;;;7.60;99.90;;;7.94;75.07;96454.06;4987424;28;20046;-44
2021/12/27 00:26:01;;;;;;;11.37;7.33;;;7.70;99.90;;;7.93;75.71;96447.13;4987457;28;20056;-45
2021/12/27 00:28:30;;;;;;;9.07;7.10;;;7.70;99.90;;;7.95;75.52;96452.25;4987474;28;20068;-44
2021/12/27 00:30:59;;;;;;;10.40;7.60;;;7.80;99.90;;;7.95;75.50;96452.25;4988442;28;20060;-45
2021/12/27 00:33:27;;;;;;;12.07;6.87;;;7.80;99.90;;;7.95;75.42;96449.59;4987709;28;20391;-45
2021/12/27 00:35:55;;;;;;;14.53;7.43;;;7.80;99.90;;;7.97;75.46;96443.13;4988786;28;20052;-46
2021/12/27 00:38:23;;;;;;;14.53;8.20;;;7.80;99.90;;;7.97;75.38;96443.13;4988048;28;20054;-46
2021/12/27 00:40:51;;;;;;;13.37;8.67;;;7.80;99.90;;;7.92;75.36;96444.66;5002908;28;20057;-45
2021/12/27 00:43:19;;;;;;;11.03;7.80;;;7.70;99.90;;;7.94;75.44;96450.59;4987867;28;20056;-46
2021/12/27 00:45:47;;;;;;;16.80;8.23;;;7.70;99.90;;;7.91;75.47;96443.84;4989009;28;20066;-43
2021/12/27 00:48:15;;;;;;;12.70;8.50;;;7.70;99.90;;;7.89;75.37;96437.88;4988456;28;20261;-44
2021/12/27 00:50:45;;;;;;;22.33;11.17;;;7.70;99.90;;;7.87;75.41;96435.41;4988160;28;20054;-44
2021/12/27 00:53:13;;;;;;;18.10;9.27;;;7.60;99.90;;;7.87;75.43;96434.56;4989111;28;20050;-45
2021/12/27 00:55:40;;;;;;;19.00;9.40;;;7.70;99.90;;;7.87;75.25;96435.41;4987313;28;20050;-44
2021/12/27 00:58:09;;;;;;;14.30;8.27;;;7.60;99.90;;;7.86;75.27;96433.75;4986404;28;20062;-43
2021/12/27 01:00:37;;;;;;;17.50;7.97;;;7.60;99.90;;;7.84;75.82;96429.63;4988932;28;20272;-46
2021/12/27 01:03:05;;;;;;;18.13;8.90;;;7.60;99.90;;;7.85;75.54;96425.97;4986895;28;20054;-44
2021/12/27 01:05:33;;;;;;;15.57;8.37;;;7.60;99.90;;;7.83;75.49;96434.09;4987814;28;20367;-44
2021/12/27 01:08:01;;;;;;;16.80;8.57;;;7.60;99.90;;;7.83;75.65;96427.97;4987407;28;20276;-43
2021/12/27 01:18:46;;;;;;;8.83;6.10;;;7.60;99.90;;;7.85;75.34;96439.22;4988212;28;20771;-43
2021/12/27 01:21:18;;;;;;;9.40;6.50;;;7.60;99.90;;;7.88;75.39;96436.22;4988451;28;20050;-43
2021/12/27 01:23:48;;;;;;;11.57;6.43;;;7.70;99.90;;;7.89;75.42;96432.59;4988411;28;20054;-45
2021/12/27 01:26:16;;;;;;;9.17;5.70;;;7.70;99.90;;;7.89;75.53;96433.41;4988241;28;20049;-43
2021/12/27 01:28:44;;;;;;;10.30;7.10;;;7.70;99.90;;;7.88;75.36;96434.38;4987890;28;20344;-42
2021/12/27 01:31:13;;;;;;;12.97;7.20;;;7.70;99.90;;;7.87;75.33;96438.06;4988189;28;20058;-44
2021/12/27 01:33:41;;;;;;;10.57;7.77;;;7.60;99.90;;;7.85;75.20;96433.91;4987932;28;20272;-44
2021/12/27 01:36:10;;;;;;;10.50;7.23;;;7.60;99.90;;;7.81;75.19;96432.59;5003017;28;20046;-43
2021/12/27 01:38:39;;;;;;;13.27;8.33;;;7.50;99.90;;;7.76;75.20;96442.91;4987989;28;20499;-44
2021/12/27 01:41:15;;;;;;;19.07;10.07;;;7.50;99.90;;;7.74;75.21;96436.97;4986863;28;20057;-43
2021/12/27 01:43:43;;;;;;;14.43;9.47;;;7.50;99.90;;;7.69;75.12;96440.13;4987693;28;20371;-46
2021/12/27 01:46:19;;;;;;;16.60;8.63;;;7.40;99.90;;;7.63;75.03;96444.28;4987130;28;20057;-44
2021/12/27 01:48:55;;;;;;;14.17;8.70;;;7.30;99.90;;;7.59;75.37;96445.63;4991444;28;20046;-43
2021/12/27 01:51:26;;;;;;;13.40;8.03;;;7.30;99.90;;;7.56;75.24;96443.34;4990976;28;20073;-44
2021/12/27 01:53:57;;;;;;;13.67;9.03;;;7.30;99.90;;;7.56;75.47;96440.69;4990796;28;20049;-43
2021/12/27 01:56:26;;;;;;;11.77;7.67;;;7.30;99.90;;;7.52;75.61;96444.66;4992887;28;20050;-47
2021/12/27 01:58:56;;;;;;;13.67;7.80;;;7.30;99.90;;;7.53;75.43;96433.06;4989134;28;20049;-42
2021/12/27 02:01:26;;;;;;;14.17;8.17;;;7.30;99.90;;;7.54;75.46;96434.72;4993339;28;20061;-45
2021/12/27 02:03:55;;;;;;;10.13;7.27;;;7.30;99.90;;;7.55;75.44;96431.06;4991744;28;20048;-43
2021/12/27 02:06:25;;;;;;;12.43;7.80;;;7.40;99.90;;;7.58;75.64;96435.19;5006685;28;20054;-44
2021/12/27 02:08:53;;;;;;;13.47;7.27;;;7.40;99.90;;;7.56;75.58;96435.38;4989955;28;20056;-43
2021/12/27 02:11:22;;;;;;;12.47;7.10;;;7.40;99.90;;;7.59;75.46;96426.25;4990079;28;20114;-47
2021/12/27 02:13:50;;;;;;;13.50;8.20;;;7.40;99.90;;;7.62;75.63;96426.75;4990102;28;20050;-43
2021/12/27 02:16:21;;;;;;;22.30;11.37;;;7.40;99.90;;;7.63;75.65;96427.56;4991688;28;20046;-43
2021/12/27 02:18:50;;;;;;;17.27;9.50;;;7.40;99.90;;;7.65;75.65;96428.22;4990748;28;20050;-43
2021/12/27 02:21:19;;;;;;;17.67;10.13;;;7.50;99.90;;;7.65;75.46;96434.34;4991651;28;20058;-45
2021/12/27 02:23:49;;;;;;;14.73;8.80;;;7.50;99.90;;;7.67;75.51;96428.88;4989325;28;20058;-43
2021/12/27 02:26:17;;;;;;;17.97;10.07;;;7.50;99.90;;;7.66;75.36;96424.59;4989852;28;20046;-45
2021/12/27 02:28:46;;;;;;;15.03;8.90;;;7.40;99.90;;;7.64;75.12;96414.16;4992202;28;20050;-43
2021/12/27 02:31:16;;;;;;;15.17;8.43;;;7.40;99.90;;;7.62;75.41;96423.28;4990527;28;20050;-43
2021/12/27 02:33:45;;;;;;;11.73;7.93;;;7.30;99.90;;;7.63;75.29;96420.44;4990631;28;20054;-45
2021/12/27 02:36:13;;;;;;;15.70;9.57;;;7.40;99.90;;;7.64;75.36;96410.69;4990296;28;20057;-44
2021/12/27 02:38:45;;;;;;;11.17;7.20;;;7.40;99.90;;;7.64;75.37;96414.16;5005814;28;20264;-45
2021/12/27 02:41:14;;;;;;;14.20;9.47;;;7.40;99.90;;;7.66;75.35;96408.69;4991409;28;20060;-43
2021/12/27 02:43:43;;;;;;;12.03;7.87;;;7.40;99.90;;;7.66;75.37;96412.16;4990775;28;20478;-44
2021/12/27 02:46:14;;;;;;;20.87;10.50;;;7.40;99.90;;;7.67;75.27;96412.97;4991553;28;20370;-44
2021/12/27 02:48:47;;;;;;;9.80;6.63;;;7.50;99.90;;;7.68;75.29;96414.63;4990474;28;20050;-45
2021/12/27 02:51:18;;;;;;;15.17;6.93;;;7.40;99.90;;;7.67;75.40;96411.13;4990737;28;20080;-45
2021/12/27 02:53:50;;;;;;;15.07;8.90;;;7.50;99.90;;;7.67;75.28;96412.97;4989761;28;20061;-45
2021/12/27 02:56:19;;;;;;;14.50;7.53;;;7.50;99.90;;;7.68;75.13;96412.81;4989812;28;20519;-47
2021/12/27 02:58:48;;;;;;;10.87;6.87;;;7.40;99.90;;;7.67;75.30;96415.63;4991550;28;20351;-44
2021/12/27 03:01:23;;;;;;;11.47;6.33;;;7.40;99.90;;;7.67;75.04;96412.97;4990589;28;20046;-44
2021/12/27 03:03:52;;;;;;;9.17;6.43;;;7.40;99.90;;;7.67;75.18;96413.78;4990333;28;20050;-43
2021/12/27 03:06:20;;;;;;;12.43;6.70;;;7.40;99.90;;;7.67;75.05;96407.69;4988246;28;20046;-43
2021/12/27 03:08:49;;;;;;;9.70;7.30;;;7.40;99.90;;;7.64;75.02;96411.50;4990158;28;20236;-43
2021/12/27 03:11:17;;;;;;;10.23;6.10;;;7.40;99.90;;;7.63;74.88;96417.78;4991380;28;20046;-45
2021/12/27 03:13:52;;;;;;;8.93;6.50;;;7.30;99.90;;;7.58;74.96;96414.84;4989855;28;20084;-43
2021/12/27 03:16:23;;;;;;;8.63;5.70;;;7.30;99.90;;;7.55;75.12;96411.72;5006286;28;20050;-45
2021/12/27 03:18:54;;;;;;;10.90;5.50;;;7.30;99.90;;;7.54;74.90;96413.53;4989246;28;20054;-46
2021/12/27 03:21:22;;;;;;;9.10;5.80;;;7.30;99.90;;;7.56;75.14;96410.69;4990651;28;20601;-45
2021/12/27 03:23:50;;;;;;;10.10;5.77;;;7.30;99.90;;;7.55;75.31;96406.41;4989860;28;20348;-43
2021/12/27 03:26:19;;;;;;;8.50;6.10;;;7.30;99.90;;;7.55;75.15;96403.78;4990135;28;20054;-43
2021/12/27 03:28:48;;;;;;;9.37;6.17;;;7.30;99.90;;;7.56;75.13;96400.97;4988686;28;20383;-43
2021/12/27 03:31:17;;;;;;;8.70;5.57;;;7.30;99.90;;;7.61;75.04;96403.06;4991627;28;20542;-45
2021/12/27 03:33:45;;;;;;;8.97;5.57;;;7.40;99.90;;;7.65;75.08;96391.13;4989870;28;20058;-43
2021/12/27 03:36:13;;;;;;;8.33;5.83;;;7.40;99.90;;;7.69;75.24;96398.53;4990956;28;20050;-43
2021/12/27 03:38:47;;;;;;;9.23;5.27;;;7.50;99.90;;;7.71;75.07;96393.09;4989112;28;20056;-46
2021/12/27 03:41:20;;;;;;;9.05;6.35;;;7.50;99.90;;;7.69;75.08;96387.94;4989941;28;20068;-44
2021/12/27 03:43:48;;;;;;;9.45;5.63;;;7.50;99.90;;;7.69;74.90;96392.44;4989618;28;20248;-44
2021/12/27 03:46:16;;;;;;;8.57;5.67;;;7.40;99.90;;;7.67;74.93;96386.47;4988497;28;20050;-43
2021/12/27 03:48:44;;;;;;;10.00;6.30;;;7.50;99.90;;;7.66;74.85;96390.16;4988498;28;20374;-43
2021/12/27 03:51:12;;;;;;;11.07;6.50;;;7.40;99.90;;;7.65;74.81;96381.34;4990772;28;20042;-43
2021/12/27 03:53:40;;;;;;;11.53;5.83;;;7.40;99.90;;;7.66;74.72;96384.84;4989916;28;20068;-43
2021/12/27 03:56:09;;;;;;;9.13;5.83;;;7.40;99.90;;;7.63;74.71;96390.47;4988696;28;20058;-43
2021/12/27 04:01:17;;;;;;;10.87;6.07;;;7.40;99.90;;;7.58;74.83;96379.56;4990069;28;20068;-45
2021/12/27 04:03:55;;;;;;;10.67;6.60;;;7.30;99.90;;;7.58;74.77;96385.72;4988516;28;20255;-45
2021/12/27 04:06:25;;;;;;;10.00;6.20;;;7.30;99.90;;;7.56;74.56;96385.06;4989350;28;20054;-44
2021/12/27 04:08:53;;;;;;;9.50;5.67;;;7.30;99.90;;;7.56;74.78;96386.88;4988565;28;20060;-44
2021/12/27 04:11:21;;;;;;;9.67;5.77;;;7.30;99.90;;;7.56;75.03;96382.41;4989297;28;20042;-44
2021/12/27 04:13:49;;;;;;;10.33;6.40;;;7.30;99.90;;;7.57;75.01;96384.06;4990326;28;20054;-45
2021/12/27 04:16:17;;;;;;;9.20;5.70;;;7.30;99.90;;;7.54;74.56;96380.91;4988281;28;20046;-44
2021/12/27 04:18:45;;;;;;;8.87;6.20;;;7.30;99.90;;;7.54;74.69;96384.41;4988646;28;20081;-44
2021/12/27 04:21:13;;;;;;;8.23;5.10;;;7.30;99.90;;;7.54;74.70;96381.75;4988217;28;20054;-44
2021/12/27 04:23:41;;;;;;;10.07;5.83;;;7.30;99.90;;;7.56;74.60;96386.88;4989660;28;20060;-44
2021/12/27 04:26:09;;;;;;;8.97;6.37;;;7.30;99.90;;;7.58;74.99;96384.88;4990102;28;20057;-45
2021/12/27 04:28:37;;;;;;;7.57;5.17;;;7.40;99.90;;;7.59;74.65;96382.06;4989171;28;20356;-44
2021/12/27 04:31:05;;;;;;;9.37;5.77;;;7.40;99.90;;;7.60;74.50;96383.72;4988939;28;20341;-43
2021/12/27 04:33:33;;;;;;;8.73;6.20;;;7.30;99.90;;;7.60;74.67;96383.72;4987259;28;20287;-45
2021/12/27 04:36:00;;;;;;;8.07;5.77;;;7.40;99.90;;;7.59;74.70;96376.75;4988609;28;20252;-44
2021/12/27 04:38:28;;;;;;;8.60;5.67;;;7.40;99.90;;;7.59;74.64;96375.94;4988075;28;20058;-45
2021/12/27 04:40:56;;;;;;;8.10;5.77;;;7.40;99.90;;;7.61;74.74;96379.25;4988393;28;20058;-44
2021/12/27 04:43:24;;;;;;;7.90;5.43;;;7.40;99.90;;;7.60;74.57;96380.22;4988422;28;20041;-44
2021/12/27 04:45:54;;;;;;;8.30;5.87;;;7.40;99.90;;;7.58;74.58;96375.13;4987970;28;20042;-43
2021/12/27 04:48:25;;;;;;;7.70;5.37;;;7.40;99.90;;;7.59;74.70;96376.75;4987003;28;20184;-48
2021/12/27 04:50:54;;;;;;;8.83;6.17;;;7.40;99.90;;;7.62;74.59;96380.91;4990074;28;20069;-44
2021/12/27 04:53:22;;;;;;;9.57;5.60;;;7.40;99.90;;;7.64;74.69;96374.41;4988529;28;20058;-44
2021/12/27 04:55:51;;;;;;;7.20;5.23;;;7.50;99.90;;;7.64;74.52;96385.03;4987941;28;20054;-48
2021/12/27 04:58:23;;;;;;;7.67;5.27;;;7.50;99.90;;;7.63;74.50;96379.88;4988356;28;20060;-46
2021/12/27 05:00:55;;;;;;;6.93;4.90;;;7.50;99.90;;;7.63;74.55;96375.41;4988327;28;20046;-46
2021/12/27 05:03:24;;;;;;;6.73;5.03;;;7.50;99.90;;;7.65;74.69;96369.94;4989301;28;20054;-45
2021/12/27 05:05:51;;;;;;;10.40;6.13;;;7.50;99.90;;;7.68;74.67;96374.91;4987644;28;20369;-44
2021/12/27 05:08:19;;;;;;;6.70;4.60;;;7.50;99.90;;;7.69;74.42;96369.41;4987414;28;20333;-44
2021/12/27 05:10:48;;;;;;;8.97;5.40;;;7.50;99.90;;;7.70;74.66;96362.31;4989108;28;20054;-46
2021/12/27 05:13:17;;;;;;;6.67;4.53;;;7.50;99.90;;;7.67;74.41;96362.66;4988145;28;20042;-46
2021/12/27 05:15:47;;;;;;;7.80;5.20;;;7.50;99.90;;;7.67;74.64;96360.81;4989164;28;20050;-47
2021/12/27 05:18:17;;;;;;;7.47;4.87;;;7.40;99.90;;;7.66;74.52;96361.81;4988828;28;20050;-45
2021/12/27 05:20:45;;;;;;;11.53;5.53;;;7.50;99.90;;;7.67;74.50;96360.00;4988197;28;20046;-46
2021/12/27 05:23:13;;;;;;;8.30;5.80;;;7.50;99.90;;;7.69;74.52;96361.47;4987502;28;20303;-47
2021/12/27 05:25:41;;;;;;;6.37;4.33;;;7.50;99.90;;;7.70;74.61;96357.00;4988069;28;20442;-44
2021/12/27 05:28:09;;;;;;;8.47;5.37;;;7.50;99.90;;;7.72;74.53;96357.66;4987250;28;20053;-45
2021/12/27 05:30:39;;;;;;;8.53;5.00;;;7.50;99.90;;;7.73;74.46;96354.00;4989991;28;20058;-44
2021/12/27 05:33:07;;;;;;;7.70;4.70;;;7.50;99.90;;;7.71;74.27;96350.69;4988353;28;20050;-44
2021/12/27 05:35:35;;;;;;;8.23;4.87;;;7.50;99.90;;;7.72;74.21;96349.72;4987874;28;20062;-45
2021/12/27 05:38:04;;;;;;;8.33;5.40;;;7.50;99.90;;;7.69;74.11;96356.16;4987985;28;20062;-46
2021/12/27 05:40:32;;;;;;;6.13;4.23;;;7.50;99.90;;;7.71;74.18;96347.22;4989299;28;20054;-46
2021/12/27 05:43:00;;;;;;;6.90;4.97;;;7.50;99.90;;;7.71;74.17;96353.34;4987621;28;20050;-44
2021/12/27 05:45:28;;;;;;;7.10;3.87;;;7.50;99.90;;;7.72;74.29;96341.75;4988166;28;20405;-45
2021/12/27 05:47:56;;;;;;;7.07;4.07;;;7.60;99.90;;;7.76;74.29;96347.53;4987502;28;20056;-46
2021/12/27 05:50:24;;;;;;;6.53;3.87;;;7.60;99.90;;;7.75;74.19;96336.09;4989509;28;20054;-44
2021/12/27 05:52:53;;;;;;;5.93;4.03;;;7.60;99.90;;;7.74;74.15;96339.75;4987315;28;20053;-45
2021/12/27 05:55:21;;;;;;;6.07;4.37;;;7.60;99.90;;;7.74;74.17;96336.28;4987500;28;20061;-46
2021/12/27 05:57:50;;;;;;;5.87;3.30;;;7.60;99.90;;;7.75;74.08;96340.56;5002137;28;20069;-45
2021/12/27 06:00:18;;;;;;;4.50;2.63;;;7.50;99.90;;;7.75;74.04;96338.75;4987540;28;20659;-46
2021/12/27 06:02:47;;;;;;;5.40;3.50;;;7.60;99.90;;;7.75;73.87;96329.97;4987223;28;20209;-44
2021/12/27 06:05:17;;;;;;;5.40;4.37;;;7.50;99.90;;;7.76;73.89;96329.00;4987718;28;20054;-44
2021/12/27 06:07:45;;;;;;;5.33;3.70;;;7.50;99.90;;;7.76;73.89;96326.34;4987300;28;20364;-43
2021/12/27 06:10:13;;;;;;;5.97;3.83;;;7.50;99.90;;;7.75;73.79;96320.19;4987578;28;20046;-44
2021/12/27 06:12:41;;;;;;;7.33;3.70;;;7.50;99.90;;;7.74;73.81;96317.75;4987686;28;20046;-44
2021/12/27 06:15:09;;;;;;;5.83;3.93;;;7.50;99.90;;;7.72;73.40;96320.56;4987403;28;20060;-45
2021/12/27 06:17:38;;;;;;;5.43;3.53;;;7.40;99.90;;;7.68;73.46;96319.28;5001548;28;20047;-44
2021/12/27 06:20:13;;;;;;;6.50;3.93;;;7.40;99.90;;;7.67;73.74;96318.44;4987611;28;20052;-49
2021/12/27 06:22:48;;;;;;;6.40;4.17;;;7.40;99.90;;;7.67;73.71;96326.38;4987786;28;20057;-45
2021/12/27 06:25:16;;;;;;;6.37;4.30;;;7.40;99.90;;;7.64;73.52;96325.94;4987059;28;20054;-46
2021/12/27 06:27:44;;;;;;;5.83;3.77;;;7.40;99.90;;;7.60;73.28;96322.78;4986872;28;20268;-44
2021/12/27 06:30:14;;;;;;;5.73;3.43;;;7.30;99.90;;;7.55;73.31;96322.47;4987786;28;20376;-46
2021/12/27 06:32:44;;;;;;;7.73;3.50;;;7.30;99.90;;;7.55;73.70;96324.31;4989260;28;20060;-45
2021/12/27 06:35:15;;;;;;;6.00;3.63;;;7.30;99.90;;;7.52;73.49;96314.88;4990205;28;20521;-43
2021/12/27 06:37:45;;;;;;;6.53;4.07;;;7.30;99.90;;;7.52;73.41;96312.22;4990589;28;20046;-44
2021/12/27 06:40:16;;;;;;;7.23;4.20;;;7.30;99.90;;;7.52;73.37;96314.06;4990975;28;20054;-44
2021/12/27 06:42:45;;;;;;;6.90;3.30;;;7.20;99.90;;;7.48;73.32;96317.06;4990951;28;20062;-44
2021/12/27 06:45:13;;;;;;;4.97;3.73;;;7.20;99.90;;;7.47;73.35;96306.66;4991348;28;20046;-43
2021/12/27 06:47:42;;;;;;;6.00;4.20;;;7.10;99.90;;;7.45;73.13;96316.59;4990415;28;20048;-43
2021/12/27 06:50:11;;;;;;;5.70;3.60;;;7.20;99.90;;;7.44;73.23;96315.78;4989752;28;20045;-44
2021/12/27 06:52:39;;;;;;;5.37;4.00;;;7.10;99.90;;;7.40;73.05;96310.97;4989180;28;20233;-41
2021/12/27 06:55:08;;;;;;;5.60;3.73;;;7.10;99.90;;;7.39;73.11;96314.66;4990102;28;20050;-45
2021/12/27 06:57:37;;;;;;;6.13;3.47;;;7.10;99.90;;;7.36;73.52;96314.97;4990631;28;20062;-46
2021/12/27 07:00:10;;;;;;;4.70;3.10;;;7.10;99.90;;;7.37;73.57;96309.53;4990930;28;20046;-44
2021/12/27 07:02:38;;;;;;;4.70;3.15;;;7.00;99.90;;;7.34;73.12;96306.38;4990378;28;20058;-44
2021/12/27 07:05:07;;;;;;;5.60;3.63;;;7.00;99.90;;;7.32;73.04;96311.84;4989135;28;20384;-43
2021/12/27 07:07:35;;;;;;;6.83;3.60;;;7.00;99.90;;;7.29;73.26;96318.31;4990767;28;20056;-44
2021/12/27 07:10:09;;;;;;;7.00;4.10;;;7.00;99.90;;;7.30;73.42;96319.13;4988559;28;20252;-43
2021/12/27 07:12:37;;;;;;;;;;;7.00;99.90;;;7.25;73.27;96313.53;4990975;28;20056;-47
2021/12/27 07:15:06;;;;;;;6.33;3.90;;;7.00;99.90;;;7.28;73.03;96319.31;4989680;28;19932;-47
2021/12/27 07:17:34;;;;;;;5.07;3.73;;;7.00;99.90;;;7.28;73.28;96314.00;4989267;28;20054;-45
2021/12/27 07:20:04;;;;;;;5.87;3.70;;;7.00;99.90;;;7.29;73.24;96313.03;4989840;28;20050;-47
2021/12/27 07:22:33;;;;;;;5.63;3.23;;;7.00;99.90;;;7.28;73.36;96311.38;4989146;28;20417;-45
2021/12/27 07:25:01;;;;;;;5.80;3.73;;;7.00;99.90;;;7.26;73.31;96310.72;5003559;28;20057;-45
2021/12/27 07:27:29;;;;;;;5.90;4.17;;;7.10;99.90;;;7.32;73.50;96311.03;4989392;28;20344;-45
2021/12/27 07:29:57;;;;;;;6.93;4.13;;;7.10;99.90;;;7.33;73.34;96308.22;4990175;28;20050;-45
2021/12/27 07:32:25;;;;;;;7.20;4.27;;;7.10;99.90;;;7.36;73.16;96312.34;4989404;28;20085;-45
2021/12/27 07:34:53;;;;;;;7.67;4.40;;;7.10;99.90;;;7.36;73.47;96307.84;4989237;28;20050;-45
2021/12/27 07:37:21;;;;;;;5.60;3.87;;;7.10;99.90;;;7.34;73.25;96306.38;4991235;28;20058;-44
2021/12/27 07:39:49;;;;;;;8.63;4.57;;;7.10;99.90;;;7.34;73.23;96309.84;4989472;28;20375;-45
2021/12/27 07:42:17;;;;;;;7.40;4.23;;;7.10;99.90;;;7.36;73.51;96301.75;4989017;28;20344;-45
2021/12/27 07:44:45;;;;;;;6.83;4.87;;;7.10;99.90;;;7.39;73.41;96304.06;4987300;28;20066;-45
2021/12/27 07:47:14;;;;;;;7.33;4.40;;;7.20;99.90;;;7.40;73.55;96293.25;4988082;28;20058;-46
2021/12/27 07:49:42;;;;;;;6.20;5.03;;;7.20;99.90;;;7.41;73.44;96294.13;4989022;28;20049;-46
2021/12/27 07:52:10;;;;;;;8.50;6.00;;;7.20;99.90;;;7.41;73.23;96297.56;4989447;28;20382;-44
2021/12/27 07:54:37;;;;;;;10.43;5.70;;;7.10;99.90;;;7.42;73.16;96299.22;4988871;28;20344;-45
2021/12/27 07:57:05;;;;;;;9.03;6.07;;;7.20;99.90;;;7.39;73.09;96298.75;4989483;28;20047;-45
2021/12/27 07:59:33;;;;;;;9.67;5.70;;;7.10;99.90;;;7.37;73.20;96298.94;4986412;28;20541;-44
2021/12/27 08:02:01;;;;;;;9.27;5.97;;;7.10;99.90;;;7.34;72.92;96296.63;4989244;28;20046;-44
2021/12/27 08:04:29;;;;;;;8.37;5.40;;;7.00;99.90;;;7.30;72.89;96304.06;4988630;28;20356;-46
2021/12/27 08:06:57;;;;;;;8.10;5.00;;;7.00;99.90;;;7.29;72.98;96302.44;4988346;28;20054;-45
2021/12/27 08:09:26;;;;;;;10.30;5.60;;;7.00;99.90;;;7.29;72.93;96298.97;4990047;28;20061;-46
2021/12/27 08:11:53;;;;;;;8.67;5.40;;;6.90;99.90;;;7.26;72.86;96299.31;4988654;28;20229;-44
2021/12/27 08:14:21;;;;;;;10.03;5.77;;;6.90;99.90;;;7.24;73.17;96296.84;4988667;28;20042;-46
2021/12/27 08:16:49;;;;;;;8.80;5.77;;;6.90;99.90;;;7.23;72.71;96300.50;4988742;28;20061;-44
2021/12/27 08:19:17;;;;;;;8.73;6.00;;;7.00;99.90;;;7.24;72.82;96302.13;4990065;28;20056;-43
2021/12/27 08:21:46;;;;;;;8.07;5.33;;;7.00;99.90;;;7.23;73.31;96300.50;4988589;28;20332;-46
2021/12/27 08:24:14;;;;;;;10.43;6.43;;;7.00;99.90;;;7.25;73.18;96306.44;4991188;28;20058;-44
2021/12/27 08:26:42;;;;;;;10.33;6.57;;;7.00;99.90;;;7.24;73.17;96307.41;4989041;28;20042;-45
2021/12/27 08:29:11;;;;;;;9.87;5.97;;;7.00;99.90;;;7.26;73.47;96309.91;4989625;28;20058;-44
2021/12/27 08:31:39;;;;;;;8.23;5.23;;;7.10;99.90;;;7.28;73.33;96308.72;4988815;28;20046;-46
2021/12/27 08:34:07;;;;;;;8.80;5.13;;;7.10;99.90;;;7.30;73.11;96313.84;4988412;28;20042;-44
2021/12/27 08:36:35;;;;;;;6.90;5.53;;;7.10;99.90;;;7.29;72.91;96304.28;4986896;28;20058;-44
2021/12/27 08:39:04;;;;;;;11.53;5.87;;;7.00;99.90;;;7.29;73.46;96297.16;4988746;28;20054;-45
2021/12/27 08:41:33;;;;;;;8.53;5.97;;;7.10;99.90;;;7.28;73.32;96305.25;4988219;28;20054;-43
2021/12/27 08:44:04;;;;;;;9.20;5.80;;;7.00;99.90;;;7.30;72.98;96293.47;5005740;28;20394;-44
2021/12/27 08:46:34;;;;;;;9.30;6.30;;;7.00;99.90;;;7.32;73.09;96298.63;5017176;28;20050;-46
2021/12/27 08:49:03;;;;;;;9.33;6.43;;;7.10;99.90;;;7.32;73.27;96290.66;5017216;28;20056;-43
2021/12/27 08:51:32;;;;;;;11.63;7.20;;;7.10;99.90;;;7.33;72.83;96294.13;5033994;28;20046;-45
2021/12/27 08:54:00;;;;;;;11.77;6.83;;;7.10;99.90;;;7.32;73.17;96292.50;5018673;28;20360;-44
2021/12/27 08:56:34;;;;;;;11.07;7.00;;;7.10;99.90;;;7.33;73.03;96289.69;5016520;28;20360;-44
2021/12/27 08:59:03;;;;;;;10.70;6.50;;;7.10;99.90;;;7.32;72.86;96297.78;5029344;28;20805;-44
2021/12/27 09:01:31;;;;;;;12.67;6.60;;;7.00;99.90;;;7.32;73.25;96301.25;5021099;28;20061;-47
2021/12/27 09:03:59;;;;;;;11.23;6.17;;;7.00;99.90;;;7.31;73.33;96291.69;5018287;28;20062;-45
2021/12/27 09:06:27;;;;;;;11.17;6.23;;;7.10;99.90;;;7.28;73.42;96295.47;5015884;28;20037;-47
2021/12/27 09:08:55;;;;;;;10.17;6.17;;;7.10;99.90;;;7.29;73.14;96294.50;5016073;28;20072;-43
2021/12/27 09:11:23;;;;;;;10.20;5.53;;;7.00;99.90;;;7.29;73.17;96286.56;5017444;28;20050;-45
2021/12/27 09:13:50;;;;;;;10.53;6.07;;;7.00;99.90;;;7.31;73.16;96286.38;5016210;28;20045;-45
2021/12/27 09:16:38;;;;;;;9.57;5.60;;;7.10;99.90;;;7.33;73.10;96289.69;5012350;28;20054;-43
2021/12/27 09:19:06;;;;;;;8.70;5.53;;;7.10;99.90;;;7.34;73.17;96291.31;5015155;28;20060;-44
2021/12/27 09:21:34;;;;;;;11.17;7.00;;;7.10;99.90;;;7.35;73.04;96287.69;5007281;28;20056;-44
2021/12/27 09:24:02;;;;;;;10.03;5.60;;;7.10;99.90;;;7.34;73.00;96293.97;5006823;28;20057;-43
2021/12/27 09:26:30;;;;;;;6.33;4.53;;;7.10;99.90;;;7.37;73.38;96300.75;5005274;28;20044;-44
2021/12/27 09:28:58;;;;;;;12.50;5.53;;;7.20;99.90;;;7.39;73.50;96294.28;5006431;28;20057;-44
2021/12/27 09:31:26;;;;;;;9.40;5.20;;;7.20;99.90;;;7.41;73.44;96294.13;5006929;28;20255;-43
2021/12/27 09:33:54;;;;;;;8.07;4.63;;;7.30;99.90;;;7.45;73.40;96290.94;5007816;28;20057;-43
2021/12/27 09:36:23;;;;;;;7.23;4.93;;;7.40;99.90;;;7.52;73.25;96282.28;5007340;28;20058;-44
2021/12/27 09:38:51;;;;;;;8.60;4.73;;;7.40;99.90;;;7.54;73.27;96281.13;5006288;28;20050;-47
2021/12/27 09:41:24;;;;;;;9.30;4.50;;;7.40;99.90;;;7.54;73.44;96281.13;5006303;28;20050;-43
2021/12/27 09:43:54;;;;;;;6.80;4.80;;;7.50;99.90;;;7.58;73.33;96271.81;5006701;28;20069;-44
2021/12/27 09:46:23;;;;;;;8.63;4.70;;;7.50;99.90;;;7.63;73.34;96272.09;5019504;28;20104;-46
2021/12/27 09:48:56;;;;;;;7.57;4.27;;;7.50;99.90;;;7.64;73.34;96265.00;5015616;28;20050;-45
2021/12/27 09:51:26;;;;;;;9.73;5.40;;;7.60;99.90;;;7.61;73.48;96265.34;5003941;28;20048;-44
2021/12/27 09:53:54;;;;;;;6.60;4.00;;;7.50;99.90;;;7.62;73.58;96273.13;5005199;28;20060;-45
2021/12/27 09:56:22;;;;;;;6.03;4.13;;;7.50;99.90;;;7.66;73.56;96277.06;5006442;28;20050;-44
2021/12/27 09:58:50;;;;;;;6.33;4.00;;;7.60;99.90;;;7.67;73.28;96275.22;5005973;28;20053;-46
2021/12/27 10:01:18;;;;;;;6.63;4.23;;;7.60;99.90;;;7.73;73.31;96263.09;5006943;28;20050;-45
2021/12/27 10:03:56;;;;;;;7.07;3.80;;;7.60;99.90;;;7.78;73.46;96261.56;5005644;28;20091;-45
2021/12/27 10:06:27;;;;;;;6.40;3.87;;;7.70;99.90;;;7.85;73.39;96261.69;5007100;28;20350;-44
2021/12/27 10:08:59;;;;;;;6.90;4.07;;;7.80;99.90;;;7.91;73.25;96260.13;5010854;28;20389;-44
2021/12/27 10:11:35;;;;;;;7.50;4.60;;;7.90;99.90;;;7.95;73.27;96256.13;5011014;28;20237;-46
2021/12/27 10:14:17;;;;;;;7.77;4.37;;;7.90;99.90;;;7.96;73.04;96247.19;5010546;28;20050;-45
2021/12/27 10:17:10;;;;;;;6.30;4.37;;;7.90;99.90;;;7.95;73.13;96256.13;5023950;28;20286;-44
2021/12/27 10:19:38;;;;;;;9.33;4.33;;;8.00;99.90;;;8.04;73.23;96252.41;5030338;28;20067;-43
2021/12/27 10:22:11;;;;;;;9.10;5.23;;;8.00;99.90;;;8.08;73.59;96251.06;5020019;28;20058;-45
2021/12/27 10:24:40;;;;;;;9.30;5.30;;;8.10;99.90;;;8.12;73.36;96252.34;5024705;28;20087;-43
2021/12/27 10:27:07;;;;;;;39.00;25.53;;;8.10;99.90;;;8.15;73.20;96235.25;5030928;28;20057;-44
2021/12/27 10:29:41;;;;;;;17.57;12.20;;;8.10;99.90;;;8.18;73.03;96246.34;5022350;28;20049;-44
2021/12/27 10:32:18;;;;;;;12.20;9.35;;;8.20;99.90;;;8.19;72.99;96236.56;5010451;28;20054;-44
2021/12/27 10:34:49;;;;;;;20.73;12.10;;;8.20;99.90;;;8.22;73.00;96230.88;5011014;28;20072;-44
2021/12/27 10:37:32;;;;;;;50.03;28.07;;;8.20;99.90;;;8.19;72.71;96231.25;5009897;28;20068;-45
2021/12/27 10:40:11;;;;;;;24.50;15.53;;;8.10;99.90;;;8.19;72.48;96229.41;5011753;28;20445;-46
2021/12/27 10:42:48;;;;;;;37.33;22.93;;;8.10;99.90;;;8.19;72.79;96226.75;5009304;28;20301;-44
2021/12/27 10:45:21;;;;;;;24.03;14.17;;;8.20;99.90;;;8.20;72.94;96223.13;5009315;28;20060;-45
2021/12/27 10:47:54;;;;;;;35.97;22.00;;;8.20;99.90;;;8.25;72.92;96220.72;5007503;28;20333;-45
2021/12/27 10:50:35;;;;;;;24.70;15.30;;;8.20;99.90;;;8.24;72.44;96218.28;5008172;28;20100;-47